Karlsruhe, Germany

12:20 PM CEST on October 21, 2014 (GMT +0200)
Karlsruhe / Baden-Baden | Change Station
CLOSE
Current Station
Airport
Location: KARLSRUHE/BADEN,
Elevation: 407 ft
Nearby Weather Stations

Elev 407 ft 48.78 °N, 8.08 °E | Updated 23 seconds ago

Mostly Cloudy
Mostly Cloudy
61 °F
Feels Like 61 °F
N
18
Wind Variable Wind from SW
Gusts 31 mph

Today
High -- | Low -- °F
--% Chance of Precip.
Yesterday
High -- | Low -- °F
Precip. -- in
7:56 AM 6:27 PM
Waning Crescent, 6% visible
Pressure 29.89 in
Visibility 6.2 miles
Clouds Scattered Clouds 3800 ft
Mostly Cloudy 5100 ft
Mostly Cloudy 9400 ft
Dew Point 46 °F
Humidity 59%
Rainfall 0.00 in
Snow Depth Not available.
UV 2 out of 12
Pollen Not available.
Air Quality Not available.
Flu Activity Not available.
METAR EDSB 211020Z 22016G27KT 9999 SCT038 BKN051 BKN094 16/08 Q1012

More Conditions Fewer Conditions

Pressure 29.89 in
Visibility 6.2 miles
Clouds Scattered Clouds 3800 ft
Mostly Cloudy 5100 ft
Mostly Cloudy 9400 ft
Dew Point 46 °F
Humidity 59%
Rainfall 0.00 in
Snow Depth Not available.
UV 2 out of 12
Pollen Not available.
Air Quality Not available.
Flu Activity Not available.
METAR EDSB 211020Z 22016G27KT 9999 SCT038 BKN051 BKN094 16/08 Q1012

More Conditions Fewer Conditions

10-Day Weather Forecast

Almanac

Astronomy

Oct. 21, 2014 Rise Set
Actual Time 7:56 AM CEST 6:27 PM CEST
Civil Twilight 7:24 AM CEST 6:59 PM CEST
Nautical Twilight 6:47 AM CEST 7:35 PM CEST
Astronomical Twilight 6:11 AM CEST 8:12 PM CEST
Moon 5:13 AM CEST 5:22 PM CEST
Length of Visible Light 11h 34m
Length of Day
10h 30m
Tomorrow will be 3m 24s shorter.
Waning Crescent, 6% of the Moon is Illuminated
Today
Waning Crescent
Oct 23
New
Oct 30
First Quarter
Nov 6
Full
Nov 14
Last Quarter

Yesterday's Extremes

Country Highs Country Lows

Community

WunderPhotos

Upload Photos

1,763,625 photos uploaded!

Nearby

Snow Depth

Not available.

Earthquake Activity

City Distance Mag. Time & Date
No recent earthquake activity has been reported nearby.
Minimum magnitude displayed is 2.5.

Coastal Water Temperatures

Place Temperature
No Stations Reporting

Nearby Weather Stations